sensor_id;sensor_type;location;lat;lon;timestamp;P1;durP1;ratioP1;P2;durP2;ratioP2
10523;SDS011;5310;48.638;9.060;2023-02-18T00:01:45;0.60;;;0.60;;
10523;SDS011;5310;48.638;9.060;2023-02-18T00:04:11;0.80;;;0.80;;
10523;SDS011;5310;48.638;9.060;2023-02-18T00:06:37;0.70;;;0.70;;
10523;SDS011;5310;48.638;9.060;2023-02-18T00:09:03;0.70;;;0.70;;
10523;SDS011;5310;48.638;9.060;2023-02-18T00:11:31;0.80;;;0.80;;
10523;SDS011;5310;48.638;9.060;2023-02-18T00:13:58;0.70;;;0.70;;
10523;SDS011;5310;48.638;9.060;2023-02-18T00:16:25;0.67;;;0.67;;
10523;SDS011;5310;48.638;9.060;2023-02-18T00:18:55;0.60;;;0.60;;
10523;SDS011;5310;48.638;9.060;2023-02-18T00:21:21;0.70;;;0.70;;
10523;SDS011;5310;48.638;9.060;2023-02-18T00:23:47;0.80;;;0.80;;
10523;SDS011;5310;48.638;9.060;2023-02-18T00:26:14;0.60;;;0.60;;
10523;SDS011;5310;48.638;9.060;2023-02-18T00:28:40;0.60;;;0.60;;
10523;SDS011;5310;48.638;9.060;2023-02-18T00:31:07;0.70;;;0.70;;
10523;SDS011;5310;48.638;9.060;2023-02-18T00:33:33;0.77;;;0.77;;
10523;SDS011;5310;48.638;9.060;2023-02-18T00:36:03;0.70;;;0.70;;
10523;SDS011;5310;48.638;9.060;2023-02-18T00:38:30;0.77;;;0.77;;
10523;SDS011;5310;48.638;9.060;2023-02-18T00:40:56;0.73;;;0.73;;
10523;SDS011;5310;48.638;9.060;2023-02-18T00:43:21;0.70;;;0.70;;
10523;SDS011;5310;48.638;9.060;2023-02-18T00:45:47;0.70;;;0.70;;
10523;SDS011;5310;48.638;9.060;2023-02-18T00:48:13;0.70;;;0.70;;
10523;SDS011;5310;48.638;9.060;2023-02-18T00:50:39;0.70;;;0.70;;
10523;SDS011;5310;48.638;9.060;2023-02-18T00:53:05;0.70;;;0.70;;
10523;SDS011;5310;48.638;9.060;2023-02-18T00:55:31;0.70;;;0.70;;
10523;SDS011;5310;48.638;9.060;2023-02-18T00:57:57;0.80;;;0.80;;
10523;SDS011;5310;48.638;9.060;2023-02-18T01:00:23;0.70;;;0.70;;
10523;SDS011;5310;48.638;9.060;2023-02-18T01:02:50;0.70;;;0.70;;
10523;SDS011;5310;48.638;9.060;2023-02-18T01:05:18;0.70;;;0.70;;
10523;SDS011;5310;48.638;9.060;2023-02-18T01:07:44;0.70;;;0.70;;
10523;SDS011;5310;48.638;9.060;2023-02-18T01:10:10;0.77;;;0.77;;
10523;SDS011;5310;48.638;9.060;2023-02-18T01:12:36;0.60;;;0.60;;
10523;SDS011;5310;48.638;9.060;2023-02-18T01:15:03;0.70;;;0.70;;
10523;SDS011;5310;48.638;9.060;2023-02-18T01:17:29;0.70;;;0.70;;
10523;SDS011;5310;48.638;9.060;2023-02-18T01:19:54;0.60;;;0.60;;
10523;SDS011;5310;48.638;9.060;2023-02-18T01:22:20;0.70;;;0.70;;
10523;SDS011;5310;48.638;9.060;2023-02-18T01:24:49;0.63;;;0.63;;
10523;SDS011;5310;48.638;9.060;2023-02-18T01:27:15;0.80;;;0.80;;
10523;SDS011;5310;48.638;9.060;2023-02-18T01:29:41;0.77;;;0.77;;
10523;SDS011;5310;48.638;9.060;2023-02-18T01:32:06;0.90;;;0.90;;
10523;SDS011;5310;48.638;9.060;2023-02-18T01:34:32;0.80;;;0.80;;
10523;SDS011;5310;48.638;9.060;2023-02-18T01:36:58;0.70;;;0.70;;
10523;SDS011;5310;48.638;9.060;2023-02-18T01:39:24;0.70;;;0.70;;
10523;SDS011;5310;48.638;9.060;2023-02-18T01:41:50;0.80;;;0.80;;
10523;SDS011;5310;48.638;9.060;2023-02-18T01:44:18;0.70;;;0.70;;
10523;SDS011;5310;48.638;9.060;2023-02-18T01:46:45;0.83;;;0.83;;
10523;SDS011;5310;48.638;9.060;2023-02-18T01:49:13;0.70;;;0.70;;
10523;SDS011;5310;48.638;9.060;2023-02-18T01:51:42;0.70;;;0.70;;
10523;SDS011;5310;48.638;9.060;2023-02-18T01:54:18;0.80;;;0.80;;
10523;SDS011;5310;48.638;9.060;2023-02-18T01:56:56;0.70;;;0.70;;
10523;SDS011;5310;48.638;9.060;2023-02-18T02:00:10;0.70;;;0.70;;
10523;SDS011;5310;48.638;9.060;2023-02-18T02:02:20;0.70;;;0.70;;
10523;SDS011;5310;48.638;9.060;2023-02-18T02:04:48;0.80;;;0.80;;
10523;SDS011;5310;48.638;9.060;2023-02-18T02:07:15;0.70;;;0.70;;
10523;SDS011;5310;48.638;9.060;2023-02-18T02:09:42;0.70;;;0.70;;
10523;SDS011;5310;48.638;9.060;2023-02-18T02:17:44;0.70;;;0.70;;
10523;SDS011;5310;48.638;9.060;2023-02-18T02:26:07;0.80;;;0.80;;
10523;SDS011;5310;48.638;9.060;2023-02-18T02:31:46;0.70;;;0.70;;
10523;SDS011;5310;48.638;9.060;2023-02-18T02:34:23;0.70;;;0.70;;
10523;SDS011;5310;48.638;9.060;2023-02-18T02:37:12;0.80;;;0.80;;
10523;SDS011;5310;48.638;9.060;2023-02-18T02:45:41;0.80;;;0.80;;
10523;SDS011;5310;48.638;9.060;2023-02-18T02:48:24;0.70;;;0.70;;
10523;SDS011;5310;48.638;9.060;2023-02-18T02:50:58;0.77;;;0.77;;
10523;SDS011;5310;48.638;9.060;2023-02-18T02:53:29;0.70;;;0.70;;
10523;SDS011;5310;48.638;9.060;2023-02-18T02:55:55;0.73;;;0.73;;
10523;SDS011;5310;48.638;9.060;2023-02-18T02:58:21;0.70;;;0.70;;
10523;SDS011;5310;48.638;9.060;2023-02-18T03:11:46;0.80;;;0.80;;
10523;SDS011;5310;48.638;9.060;2023-02-18T03:14:39;0.70;;;0.70;;
10523;SDS011;5310;48.638;9.060;2023-02-18T03:17:18;0.70;;;0.70;;
10523;SDS011;5310;48.638;9.060;2023-02-18T03:19:54;0.70;;;0.70;;
10523;SDS011;5310;48.638;9.060;2023-02-18T03:22:30;0.70;;;0.70;;
10523;SDS011;5310;48.638;9.060;2023-02-18T03:24:57;0.80;;;0.80;;
10523;SDS011;5310;48.638;9.060;2023-02-18T03:27:34;0.80;;;0.80;;
10523;SDS011;5310;48.638;9.060;2023-02-18T03:30:21;0.70;;;0.70;;
10523;SDS011;5310;48.638;9.060;2023-02-18T03:33:04;0.80;;;0.80;;
10523;SDS011;5310;48.638;9.060;2023-02-18T03:35:31;0.70;;;0.70;;
10523;SDS011;5310;48.638;9.060;2023-02-18T03:38:17;0.63;;;0.63;;
10523;SDS011;5310;48.638;9.060;2023-02-18T03:40:49;0.80;;;0.80;;
10523;SDS011;5310;48.638;9.060;2023-02-18T03:43:15;0.70;;;0.70;;
10523;SDS011;5310;48.638;9.060;2023-02-18T03:45:41;0.70;;;0.70;;
10523;SDS011;5310;48.638;9.060;2023-02-18T03:48:07;0.70;;;0.70;;
10523;SDS011;5310;48.638;9.060;2023-02-18T03:50:33;0.80;;;0.80;;
10523;SDS011;5310;48.638;9.060;2023-02-18T03:52:59;0.80;;;0.80;;
10523;SDS011;5310;48.638;9.060;2023-02-18T03:55:25;0.80;;;0.80;;
10523;SDS011;5310;48.638;9.060;2023-02-18T03:57:51;0.90;;;0.90;;
10523;SDS011;5310;48.638;9.060;2023-02-18T04:00:17;0.90;;;0.90;;
10523;SDS011;5310;48.638;9.060;2023-02-18T04:02:44;0.80;;;0.80;;
10523;SDS011;5310;48.638;9.060;2023-02-18T04:05:10;0.80;;;0.80;;
10523;SDS011;5310;48.638;9.060;2023-02-18T04:07:36;0.80;;;0.80;;
10523;SDS011;5310;48.638;9.060;2023-02-18T04:10:03;0.80;;;0.80;;
10523;SDS011;5310;48.638;9.060;2023-02-18T04:12:30;0.80;;;0.80;;
10523;SDS011;5310;48.638;9.060;2023-02-18T04:14:56;0.80;;;0.80;;
10523;SDS011;5310;48.638;9.060;2023-02-18T04:17:22;0.87;;;0.87;;
10523;SDS011;5310;48.638;9.060;2023-02-18T04:19:48;0.80;;;0.80;;
10523;SDS011;5310;48.638;9.060;2023-02-18T04:22:14;0.83;;;0.83;;
10523;SDS011;5310;48.638;9.060;2023-02-18T04:24:39;0.90;;;0.90;;
10523;SDS011;5310;48.638;9.060;2023-02-18T04:27:06;0.80;;;0.80;;
10523;SDS011;5310;48.638;9.060;2023-02-18T04:29:31;0.80;;;0.80;;
10523;SDS011;5310;48.638;9.060;2023-02-18T04:31:57;0.73;;;0.73;;
10523;SDS011;5310;48.638;9.060;2023-02-18T04:34:23;0.80;;;0.80;;
10523;SDS011;5310;48.638;9.060;2023-02-18T04:36:49;0.70;;;0.70;;
10523;SDS011;5310;48.638;9.060;2023-02-18T04:39:15;0.90;;;0.90;;
10523;SDS011;5310;48.638;9.060;2023-02-18T04:41:41;0.83;;;0.83;;
10523;SDS011;5310;48.638;9.060;2023-02-18T04:44:07;0.80;;;0.80;;
10523;SDS011;5310;48.638;9.060;2023-02-18T04:46:33;0.80;;;0.80;;
10523;SDS011;5310;48.638;9.060;2023-02-18T04:48:59;0.90;;;0.90;;
10523;SDS011;5310;48.638;9.060;2023-02-18T04:51:25;0.90;;;0.90;;
10523;SDS011;5310;48.638;9.060;2023-02-18T04:53:51;0.80;;;0.80;;
10523;SDS011;5310;48.638;9.060;2023-02-18T04:56:17;0.77;;;0.77;;
10523;SDS011;5310;48.638;9.060;2023-02-18T04:58:43;0.90;;;0.90;;
10523;SDS011;5310;48.638;9.060;2023-02-18T05:01:09;0.80;;;0.80;;
10523;SDS011;5310;48.638;9.060;2023-02-18T05:03:35;0.90;;;0.90;;
10523;SDS011;5310;48.638;9.060;2023-02-18T05:06:01;0.90;;;0.90;;
10523;SDS011;5310;48.638;9.060;2023-02-18T05:08:27;0.80;;;0.80;;
10523;SDS011;5310;48.638;9.060;2023-02-18T05:10:53;0.70;;;0.70;;
10523;SDS011;5310;48.638;9.060;2023-02-18T05:13:19;0.70;;;0.70;;
10523;SDS011;5310;48.638;9.060;2023-02-18T05:15:46;0.90;;;0.90;;
10523;SDS011;5310;48.638;9.060;2023-02-18T05:18:12;0.80;;;0.80;;
10523;SDS011;5310;48.638;9.060;2023-02-18T05:20:38;0.70;;;0.70;;
10523;SDS011;5310;48.638;9.060;2023-02-18T05:23:04;0.80;;;0.80;;
10523;SDS011;5310;48.638;9.060;2023-02-18T05:25:30;0.80;;;0.80;;
10523;SDS011;5310;48.638;9.060;2023-02-18T05:27:55;0.70;;;0.70;;
10523;SDS011;5310;48.638;9.060;2023-02-18T05:30:21;0.80;;;0.80;;
10523;SDS011;5310;48.638;9.060;2023-02-18T05:32:47;0.80;;;0.80;;
10523;SDS011;5310;48.638;9.060;2023-02-18T05:35:13;0.80;;;0.80;;
10523;SDS011;5310;48.638;9.060;2023-02-18T05:37:39;0.70;;;0.70;;
10523;SDS011;5310;48.638;9.060;2023-02-18T05:40:05;0.80;;;0.80;;
10523;SDS011;5310;48.638;9.060;2023-02-18T05:42:31;0.80;;;0.80;;
10523;SDS011;5310;48.638;9.060;2023-02-18T05:44:57;0.80;;;0.80;;
10523;SDS011;5310;48.638;9.060;2023-02-18T05:47:23;0.70;;;0.70;;
10523;SDS011;5310;48.638;9.060;2023-02-18T05:49:49;0.87;;;0.87;;
10523;SDS011;5310;48.638;9.060;2023-02-18T05:52:15;0.70;;;0.70;;
10523;SDS011;5310;48.638;9.060;2023-02-18T05:54:41;0.70;;;0.70;;
10523;SDS011;5310;48.638;9.060;2023-02-18T05:57:08;0.70;;;0.70;;
10523;SDS011;5310;48.638;9.060;2023-02-18T05:59:35;0.70;;;0.70;;
10523;SDS011;5310;48.638;9.060;2023-02-18T06:02:01;0.80;;;0.80;;
10523;SDS011;5310;48.638;9.060;2023-02-18T06:04:27;0.70;;;0.70;;
10523;SDS011;5310;48.638;9.060;2023-02-18T06:06:52;0.70;;;0.70;;
10523;SDS011;5310;48.638;9.060;2023-02-18T06:09:18;0.80;;;0.80;;
10523;SDS011;5310;48.638;9.060;2023-02-18T06:11:44;0.70;;;0.70;;
10523;SDS011;5310;48.638;9.060;2023-02-18T06:14:10;0.70;;;0.70;;
10523;SDS011;5310;48.638;9.060;2023-02-18T06:16:36;0.80;;;0.80;;
10523;SDS011;5310;48.638;9.060;2023-02-18T06:19:02;0.70;;;0.70;;
10523;SDS011;5310;48.638;9.060;2023-02-18T06:21:28;0.80;;;0.80;;
10523;SDS011;5310;48.638;9.060;2023-02-18T06:23:54;0.70;;;0.70;;
10523;SDS011;5310;48.638;9.060;2023-02-18T06:26:19;0.80;;;0.80;;
10523;SDS011;5310;48.638;9.060;2023-02-18T06:28:46;0.70;;;0.70;;
10523;SDS011;5310;48.638;9.060;2023-02-18T06:31:12;0.80;;;0.80;;
10523;SDS011;5310;48.638;9.060;2023-02-18T06:33:37;0.70;;;0.70;;
10523;SDS011;5310;48.638;9.060;2023-02-18T06:36:04;0.70;;;0.70;;
10523;SDS011;5310;48.638;9.060;2023-02-18T06:38:36;0.70;;;0.70;;
10523;SDS011;5310;48.638;9.060;2023-02-18T06:41:02;0.70;;;0.70;;
10523;SDS011;5310;48.638;9.060;2023-02-18T06:43:28;0.80;;;0.80;;
10523;SDS011;5310;48.638;9.060;2023-02-18T06:45:54;0.70;;;0.70;;
10523;SDS011;5310;48.638;9.060;2023-02-18T06:48:21;0.80;;;0.80;;
10523;SDS011;5310;48.638;9.060;2023-02-18T06:50:47;0.70;;;0.70;;
10523;SDS011;5310;48.638;9.060;2023-02-18T06:53:13;0.70;;;0.70;;
10523;SDS011;5310;48.638;9.060;2023-02-18T06:55:41;0.70;;;0.70;;
10523;SDS011;5310;48.638;9.060;2023-02-18T06:58:08;0.70;;;0.70;;
10523;SDS011;5310;48.638;9.060;2023-02-18T07:00:34;0.70;;;0.70;;
10523;SDS011;5310;48.638;9.060;2023-02-18T07:03:00;0.70;;;0.70;;
10523;SDS011;5310;48.638;9.060;2023-02-18T07:05:26;0.70;;;0.70;;
10523;SDS011;5310;48.638;9.060;2023-02-18T07:07:52;0.80;;;0.80;;
10523;SDS011;5310;48.638;9.060;2023-02-18T07:10:18;0.70;;;0.70;;
10523;SDS011;5310;48.638;9.060;2023-02-18T07:12:44;0.77;;;0.77;;
10523;SDS011;5310;48.638;9.060;2023-02-18T07:15:10;0.60;;;0.60;;
10523;SDS011;5310;48.638;9.060;2023-02-18T07:17:36;0.70;;;0.70;;
10523;SDS011;5310;48.638;9.060;2023-02-18T07:20:02;0.60;;;0.60;;
10523;SDS011;5310;48.638;9.060;2023-02-18T07:22:28;0.60;;;0.60;;
10523;SDS011;5310;48.638;9.060;2023-02-18T07:24:54;0.70;;;0.70;;
10523;SDS011;5310;48.638;9.060;2023-02-18T07:27:20;0.60;;;0.60;;
10523;SDS011;5310;48.638;9.060;2023-02-18T07:29:46;0.70;;;0.70;;
10523;SDS011;5310;48.638;9.060;2023-02-18T07:32:12;0.70;;;0.70;;
10523;SDS011;5310;48.638;9.060;2023-02-18T07:34:39;0.70;;;0.70;;
10523;SDS011;5310;48.638;9.060;2023-02-18T07:37:05;0.70;;;0.70;;
10523;SDS011;5310;48.638;9.060;2023-02-18T07:39:40;0.67;;;0.67;;
10523;SDS011;5310;48.638;9.060;2023-02-18T07:42:07;0.60;;;0.60;;
10523;SDS011;5310;48.638;9.060;2023-02-18T07:44:33;0.70;;;0.70;;
10523;SDS011;5310;48.638;9.060;2023-02-18T07:46:59;0.80;;;0.80;;
10523;SDS011;5310;48.638;9.060;2023-02-18T07:49:26;0.70;;;0.70;;
10523;SDS011;5310;48.638;9.060;2023-02-18T07:51:52;0.70;;;0.70;;
10523;SDS011;5310;48.638;9.060;2023-02-18T07:54:18;0.60;;;0.60;;
10523;SDS011;5310;48.638;9.060;2023-02-18T07:56:44;0.80;;;0.80;;
10523;SDS011;5310;48.638;9.060;2023-02-18T07:59:10;0.70;;;0.70;;
10523;SDS011;5310;48.638;9.060;2023-02-18T08:01:37;0.60;;;0.60;;
10523;SDS011;5310;48.638;9.060;2023-02-18T08:04:02;0.70;;;0.70;;
10523;SDS011;5310;48.638;9.060;2023-02-18T08:06:30;0.60;;;0.60;;
10523;SDS011;5310;48.638;9.060;2023-02-18T08:08:58;0.60;;;0.60;;
10523;SDS011;5310;48.638;9.060;2023-02-18T08:11:24;0.70;;;0.70;;
10523;SDS011;5310;48.638;9.060;2023-02-18T08:13:49;0.60;;;0.60;;
10523;SDS011;5310;48.638;9.060;2023-02-18T08:16:16;0.60;;;0.60;;
10523;SDS011;5310;48.638;9.060;2023-02-18T08:18:42;0.60;;;0.60;;
10523;SDS011;5310;48.638;9.060;2023-02-18T08:21:08;0.60;;;0.60;;
10523;SDS011;5310;48.638;9.060;2023-02-18T08:23:33;0.70;;;0.70;;
10523;SDS011;5310;48.638;9.060;2023-02-18T08:25:59;0.80;;;0.80;;
10523;SDS011;5310;48.638;9.060;2023-02-18T08:28:25;0.60;;;0.60;;
10523;SDS011;5310;48.638;9.060;2023-02-18T08:30:52;0.60;;;0.60;;
10523;SDS011;5310;48.638;9.060;2023-02-18T08:33:18;0.60;;;0.60;;
10523;SDS011;5310;48.638;9.060;2023-02-18T08:35:46;0.60;;;0.60;;
10523;SDS011;5310;48.638;9.060;2023-02-18T08:38:12;0.60;;;0.60;;
10523;SDS011;5310;48.638;9.060;2023-02-18T08:40:38;0.70;;;0.70;;
10523;SDS011;5310;48.638;9.060;2023-02-18T08:43:05;0.67;;;0.67;;
10523;SDS011;5310;48.638;9.060;2023-02-18T08:45:31;0.60;;;0.60;;
10523;SDS011;5310;48.638;9.060;2023-02-18T08:47:57;0.60;;;0.60;;
10523;SDS011;5310;48.638;9.060;2023-02-18T08:50:23;0.70;;;0.70;;
10523;SDS011;5310;48.638;9.060;2023-02-18T08:52:52;0.67;;;0.67;;
10523;SDS011;5310;48.638;9.060;2023-02-18T08:55:18;0.70;;;0.70;;
10523;SDS011;5310;48.638;9.060;2023-02-18T08:57:48;0.60;;;0.60;;
10523;SDS011;5310;48.638;9.060;2023-02-18T09:00:14;0.60;;;0.60;;
10523;SDS011;5310;48.638;9.060;2023-02-18T09:02:41;0.50;;;0.50;;
10523;SDS011;5310;48.638;9.060;2023-02-18T09:05:07;0.60;;;0.60;;
10523;SDS011;5310;48.638;9.060;2023-02-18T09:07:33;0.60;;;0.60;;
10523;SDS011;5310;48.638;9.060;2023-02-18T09:10:00;0.57;;;0.57;;
10523;SDS011;5310;48.638;9.060;2023-02-18T09:12:26;0.70;;;0.70;;
10523;SDS011;5310;48.638;9.060;2023-02-18T09:14:52;0.60;;;0.60;;
10523;SDS011;5310;48.638;9.060;2023-02-18T09:17:18;0.60;;;0.60;;
10523;SDS011;5310;48.638;9.060;2023-02-18T09:19:44;0.60;;;0.60;;
10523;SDS011;5310;48.638;9.060;2023-02-18T09:22:09;0.60;;;0.60;;
10523;SDS011;5310;48.638;9.060;2023-02-18T09:24:39;0.50;;;0.50;;
10523;SDS011;5310;48.638;9.060;2023-02-18T09:27:05;0.60;;;0.60;;
10523;SDS011;5310;48.638;9.060;2023-02-18T09:29:31;0.60;;;0.60;;
10523;SDS011;5310;48.638;9.060;2023-02-18T09:31:59;0.57;;;0.57;;
10523;SDS011;5310;48.638;9.060;2023-02-18T09:34:26;0.60;;;0.60;;
10523;SDS011;5310;48.638;9.060;2023-02-18T09:36:51;0.60;;;0.60;;
10523;SDS011;5310;48.638;9.060;2023-02-18T09:39:17;0.60;;;0.60;;
10523;SDS011;5310;48.638;9.060;2023-02-18T09:41:47;0.60;;;0.60;;
10523;SDS011;5310;48.638;9.060;2023-02-18T09:44:23;0.60;;;0.60;;
10523;SDS011;5310;48.638;9.060;2023-02-18T09:49:19;0.60;;;0.60;;
10523;SDS011;5310;48.638;9.060;2023-02-18T09:51:46;0.60;;;0.60;;
10523;SDS011;5310;48.638;9.060;2023-02-18T09:54:13;0.50;;;0.50;;
10523;SDS011;5310;48.638;9.060;2023-02-18T09:56:42;0.60;;;0.60;;
10523;SDS011;5310;48.638;9.060;2023-02-18T09:59:14;0.60;;;0.60;;
10523;SDS011;5310;48.638;9.060;2023-02-18T10:01:42;0.60;;;0.60;;
10523;SDS011;5310;48.638;9.060;2023-02-18T10:04:11;0.60;;;0.60;;
10523;SDS011;5310;48.638;9.060;2023-02-18T10:06:39;0.60;;;0.60;;
10523;SDS011;5310;48.638;9.060;2023-02-18T10:09:08;0.60;;;0.60;;
10523;SDS011;5310;48.638;9.060;2023-02-18T10:11:40;0.50;;;0.50;;
10523;SDS011;5310;48.638;9.060;2023-02-18T10:14:10;0.50;;;0.50;;
10523;SDS011;5310;48.638;9.060;2023-02-18T10:16:37;0.57;;;0.57;;
10523;SDS011;5310;48.638;9.060;2023-02-18T10:19:04;0.50;;;0.50;;
10523;SDS011;5310;48.638;9.060;2023-02-18T10:21:32;0.60;;;0.60;;
10523;SDS011;5310;48.638;9.060;2023-02-18T10:24:03;0.43;;;0.43;;
10523;SDS011;5310;48.638;9.060;2023-02-18T10:26:33;0.50;;;0.50;;
10523;SDS011;5310;48.638;9.060;2023-02-18T10:29:01;0.60;;;0.60;;
10523;SDS011;5310;48.638;9.060;2023-02-18T10:31:34;0.60;;;0.60;;
10523;SDS011;5310;48.638;9.060;2023-02-18T10:34:16;0.60;;;0.60;;
10523;SDS011;5310;48.638;9.060;2023-02-18T10:37:23;0.57;;;0.57;;
10523;SDS011;5310;48.638;9.060;2023-02-18T10:48:26;0.50;;;0.50;;
10523;SDS011;5310;48.638;9.060;2023-02-18T10:51:20;0.50;;;0.50;;
10523;SDS011;5310;48.638;9.060;2023-02-18T10:53:47;0.50;;;0.50;;
10523;SDS011;5310;48.638;9.060;2023-02-18T10:59:09;0.50;;;0.50;;
10523;SDS011;5310;48.638;9.060;2023-02-18T11:01:36;0.60;;;0.60;;
10523;SDS011;5310;48.638;9.060;2023-02-18T11:04:10;0.60;;;0.60;;
10523;SDS011;5310;48.638;9.060;2023-02-18T11:06:45;0.50;;;0.50;;
10523;SDS011;5310;48.638;9.060;2023-02-18T11:09:23;0.50;;;0.50;;
10523;SDS011;5310;48.638;9.060;2023-02-18T11:12:11;0.50;;;0.50;;
10523;SDS011;5310;48.638;9.060;2023-02-18T11:14:39;0.50;;;0.50;;
10523;SDS011;5310;48.638;9.060;2023-02-18T11:19:51;0.50;;;0.50;;
10523;SDS011;5310;48.638;9.060;2023-02-18T11:22:28;0.50;;;0.50;;
10523;SDS011;5310;48.638;9.060;2023-02-18T11:24:56;0.50;;;0.50;;
10523;SDS011;5310;48.638;9.060;2023-02-18T11:27:45;0.60;;;0.60;;
10523;SDS011;5310;48.638;9.060;2023-02-18T11:30:44;0.50;;;0.50;;
10523;SDS011;5310;48.638;9.060;2023-02-18T11:33:05;0.50;;;0.50;;
10523;SDS011;5310;48.638;9.060;2023-02-18T11:35:32;0.60;;;0.60;;
10523;SDS011;5310;48.638;9.060;2023-02-18T11:37:59;0.50;;;0.50;;
10523;SDS011;5310;48.638;9.060;2023-02-18T11:40:30;0.50;;;0.50;;
10523;SDS011;5310;48.638;9.060;2023-02-18T11:43:01;0.50;;;0.50;;
10523;SDS011;5310;48.638;9.060;2023-02-18T11:45:28;0.50;;;0.50;;
10523;SDS011;5310;48.638;9.060;2023-02-18T11:48:37;0.50;;;0.50;;
10523;SDS011;5310;48.638;9.060;2023-02-18T11:50:44;0.50;;;0.50;;
10523;SDS011;5310;48.638;9.060;2023-02-18T11:53:25;0.50;;;0.50;;
10523;SDS011;5310;48.638;9.060;2023-02-18T11:55:55;0.50;;;0.50;;
10523;SDS011;5310;48.638;9.060;2023-02-18T11:58:22;0.50;;;0.50;;
10523;SDS011;5310;48.638;9.060;2023-02-18T12:00:49;0.50;;;0.50;;
10523;SDS011;5310;48.638;9.060;2023-02-18T12:05:41;0.60;;;0.60;;
10523;SDS011;5310;48.638;9.060;2023-02-18T12:08:13;0.50;;;0.50;;
10523;SDS011;5310;48.638;9.060;2023-02-18T12:10:52;0.43;;;0.43;;
10523;SDS011;5310;48.638;9.060;2023-02-18T12:16:18;0.50;;;0.50;;
10523;SDS011;5310;48.638;9.060;2023-02-18T12:19:37;0.50;;;0.50;;
10523;SDS011;5310;48.638;9.060;2023-02-18T12:22:21;0.60;;;0.60;;
10523;SDS011;5310;48.638;9.060;2023-02-18T12:25:23;0.50;;;0.50;;
10523;SDS011;5310;48.638;9.060;2023-02-18T12:33:43;0.50;;;0.50;;
10523;SDS011;5310;48.638;9.060;2023-02-18T12:41:57;0.50;;;0.50;;
10523;SDS011;5310;48.638;9.060;2023-02-18T12:44:37;0.40;;;0.40;;
10523;SDS011;5310;48.638;9.060;2023-02-18T12:50:02;0.50;;;0.50;;
10523;SDS011;5310;48.638;9.060;2023-02-18T12:55:21;0.40;;;0.40;;
10523;SDS011;5310;48.638;9.060;2023-02-18T12:58:04;0.50;;;0.50;;
10523;SDS011;5310;48.638;9.060;2023-02-18T13:03:23;0.50;;;0.50;;
10523;SDS011;5310;48.638;9.060;2023-02-18T13:06:19;0.50;;;0.50;;
10523;SDS011;5310;48.638;9.060;2023-02-18T13:11:35;0.50;;;0.50;;
10523;SDS011;5310;48.638;9.060;2023-02-18T13:14:12;0.47;;;0.47;;
10523;SDS011;5310;48.638;9.060;2023-02-18T13:16:44;0.50;;;0.50;;
10523;SDS011;5310;48.638;9.060;2023-02-18T13:19:17;0.40;;;0.40;;
10523;SDS011;5310;48.638;9.060;2023-02-18T13:21:49;0.40;;;0.40;;
10523;SDS011;5310;48.638;9.060;2023-02-18T13:24:24;0.50;;;0.50;;
10523;SDS011;5310;48.638;9.060;2023-02-18T13:26:52;0.50;;;0.50;;
10523;SDS011;5310;48.638;9.060;2023-02-18T13:29:23;0.40;;;0.40;;
10523;SDS011;5310;48.638;9.060;2023-02-18T13:32:05;0.50;;;0.50;;
10523;SDS011;5310;48.638;9.060;2023-02-18T13:37:21;0.43;;;0.43;;
10523;SDS011;5310;48.638;9.060;2023-02-18T13:39:56;0.40;;;0.40;;
10523;SDS011;5310;48.638;9.060;2023-02-18T13:50:32;0.50;;;0.50;;
10523;SDS011;5310;48.638;9.060;2023-02-18T13:55:39;0.50;;;0.50;;
10523;SDS011;5310;48.638;9.060;2023-02-18T13:58:11;0.50;;;0.50;;
10523;SDS011;5310;48.638;9.060;2023-02-18T14:00:40;0.50;;;0.50;;
10523;SDS011;5310;48.638;9.060;2023-02-18T14:03:30;0.60;;;0.60;;
10523;SDS011;5310;48.638;9.060;2023-02-18T14:06:00;0.50;;;0.50;;
10523;SDS011;5310;48.638;9.060;2023-02-18T14:08:33;0.50;;;0.50;;
10523;SDS011;5310;48.638;9.060;2023-02-18T14:13:39;0.50;;;0.50;;
10523;SDS011;5310;48.638;9.060;2023-02-18T14:16:05;0.50;;;0.50;;
10523;SDS011;5310;48.638;9.060;2023-02-18T14:19:22;0.50;;;0.50;;
10523;SDS011;5310;48.638;9.060;2023-02-18T14:21:19;0.60;;;0.60;;
10523;SDS011;5310;48.638;9.060;2023-02-18T14:23:56;0.80;;;0.80;;
10523;SDS011;5310;48.638;9.060;2023-02-18T14:26:28;0.50;;;0.50;;
10523;SDS011;5310;48.638;9.060;2023-02-18T14:28:56;0.50;;;0.50;;
10523;SDS011;5310;48.638;9.060;2023-02-18T14:39:27;0.50;;;0.50;;
10523;SDS011;5310;48.638;9.060;2023-02-18T14:50:10;0.60;;;0.60;;
10523;SDS011;5310;48.638;9.060;2023-02-18T14:52:42;0.50;;;0.50;;
10523;SDS011;5310;48.638;9.060;2023-02-18T14:55:20;0.60;;;0.60;;
10523;SDS011;5310;48.638;9.060;2023-02-18T14:57:59;0.50;;;0.50;;
10523;SDS011;5310;48.638;9.060;2023-02-18T15:00:26;0.60;;;0.60;;
10523;SDS011;5310;48.638;9.060;2023-02-18T15:02:56;0.60;;;0.60;;
10523;SDS011;5310;48.638;9.060;2023-02-18T15:05:24;0.60;;;0.60;;
10523;SDS011;5310;48.638;9.060;2023-02-18T15:08:03;0.50;;;0.50;;
10523;SDS011;5310;48.638;9.060;2023-02-18T15:10:42;0.50;;;0.50;;
10523;SDS011;5310;48.638;9.060;2023-02-18T15:13:11;0.50;;;0.50;;
10523;SDS011;5310;48.638;9.060;2023-02-18T15:15:50;0.50;;;0.50;;
10523;SDS011;5310;48.638;9.060;2023-02-18T15:21:06;0.50;;;0.50;;
10523;SDS011;5310;48.638;9.060;2023-02-18T15:23:35;0.50;;;0.50;;
10523;SDS011;5310;48.638;9.060;2023-02-18T15:26:02;0.50;;;0.50;;
10523;SDS011;5310;48.638;9.060;2023-02-18T15:28:30;0.60;;;0.60;;
10523;SDS011;5310;48.638;9.060;2023-02-18T15:31:01;0.50;;;0.50;;
10523;SDS011;5310;48.638;9.060;2023-02-18T15:33:27;0.60;;;0.60;;
10523;SDS011;5310;48.638;9.060;2023-02-18T15:36:04;0.57;;;0.57;;
10523;SDS011;5310;48.638;9.060;2023-02-18T15:38:30;0.60;;;0.60;;
10523;SDS011;5310;48.638;9.060;2023-02-18T15:40:57;0.57;;;0.57;;
10523;SDS011;5310;48.638;9.060;2023-02-18T15:43:24;0.60;;;0.60;;
10523;SDS011;5310;48.638;9.060;2023-02-18T15:45:52;0.60;;;0.60;;
10523;SDS011;5310;48.638;9.060;2023-02-18T15:48:34;0.60;;;0.60;;
10523;SDS011;5310;48.638;9.060;2023-02-18T15:51:03;0.60;;;0.60;;
10523;SDS011;5310;48.638;9.060;2023-02-18T15:53:30;0.57;;;0.57;;
10523;SDS011;5310;48.638;9.060;2023-02-18T15:56:04;0.60;;;0.60;;
10523;SDS011;5310;48.638;9.060;2023-02-18T15:58:34;0.50;;;0.50;;
10523;SDS011;5310;48.638;9.060;2023-02-18T16:01:04;0.60;;;0.60;;
10523;SDS011;5310;48.638;9.060;2023-02-18T16:03:53;0.60;;;0.60;;
10523;SDS011;5310;48.638;9.060;2023-02-18T16:06:21;0.50;;;0.50;;
10523;SDS011;5310;48.638;9.060;2023-02-18T16:09:01;0.60;;;0.60;;
10523;SDS011;5310;48.638;9.060;2023-02-18T16:11:32;0.50;;;0.50;;
10523;SDS011;5310;48.638;9.060;2023-02-18T16:13:59;0.60;;;0.60;;
10523;SDS011;5310;48.638;9.060;2023-02-18T16:16:33;0.60;;;0.60;;
10523;SDS011;5310;48.638;9.060;2023-02-18T16:19:00;0.50;;;0.50;;
10523;SDS011;5310;48.638;9.060;2023-02-18T16:21:31;0.60;;;0.60;;
10523;SDS011;5310;48.638;9.060;2023-02-18T16:26:50;0.60;;;0.60;;
10523;SDS011;5310;48.638;9.060;2023-02-18T16:29:22;0.53;;;0.53;;
10523;SDS011;5310;48.638;9.060;2023-02-18T16:31:49;0.60;;;0.60;;
10523;SDS011;5310;48.638;9.060;2023-02-18T16:34:15;0.60;;;0.60;;
10523;SDS011;5310;48.638;9.060;2023-02-18T16:36:42;0.60;;;0.60;;
10523;SDS011;5310;48.638;9.060;2023-02-18T16:39:27;0.60;;;0.60;;
10523;SDS011;5310;48.638;9.060;2023-02-18T16:41:56;0.60;;;0.60;;
10523;SDS011;5310;48.638;9.060;2023-02-18T16:44:22;0.60;;;0.60;;
10523;SDS011;5310;48.638;9.060;2023-02-18T16:46:48;0.50;;;0.50;;
10523;SDS011;5310;48.638;9.060;2023-02-18T16:49:14;0.60;;;0.60;;
10523;SDS011;5310;48.638;9.060;2023-02-18T16:51:40;0.60;;;0.60;;
10523;SDS011;5310;48.638;9.060;2023-02-18T16:54:09;0.60;;;0.60;;
10523;SDS011;5310;48.638;9.060;2023-02-18T16:56:36;0.50;;;0.50;;
10523;SDS011;5310;48.638;9.060;2023-02-18T16:59:02;0.60;;;0.60;;
10523;SDS011;5310;48.638;9.060;2023-02-18T17:01:29;0.60;;;0.60;;
10523;SDS011;5310;48.638;9.060;2023-02-18T17:04:05;0.60;;;0.60;;
10523;SDS011;5310;48.638;9.060;2023-02-18T17:06:31;0.60;;;0.60;;
10523;SDS011;5310;48.638;9.060;2023-02-18T17:08:58;0.60;;;0.60;;